Corydon, IN

5:58 PM EDT on July 01, 2015 (GMT -0400)
Odyssey Neighborhood | | Change Station
CLOSE
Current Station
Personal Weather Station
Location: Corydon, IN
Elevation: 774 ft
Nearby Weather Stations

Elev 774 ft 38.23 °N, 86.05 °W | Updated 2 minutes ago

Mostly Cloudy
Mostly Cloudy
75.2 °F
Feels Like 76 °F
N
3.0
Wind Variable Wind from North
Gusts 5.0 mph

Today
High -- | Low -- °F
--% Chance of Precip.
Yesterday
High -- | Low -- °F
Precip. -- in
6:24 AM 9:11 PM
Full, 100% visible
Pressure 29.87 in
Visibility 7.0 miles
Clouds Scattered Clouds 2200 ft
Scattered Clouds 6500 ft
Mostly Cloudy 12000 ft
Mostly Cloudy 18000 ft
Heat Index 76 °F
Dew Point 69 °F
Humidity 81%
Rainfall 0.24 in
Snow Depth Not available.
UV 2 out of 12
Pollen 2.60 out of 12
Air Quality Not available.
Flu Activity Not available.
METAR KSDF 012156Z 31004KT 7SM SCT022 SCT065 BKN120 BKN180 27/20 A2989 RMK AO2 SLP115 T02670200

More Conditions Fewer Conditions

Pressure 29.87 in
Visibility 7.0 miles
Clouds Scattered Clouds 2200 ft
Scattered Clouds 6500 ft
Mostly Cloudy 12000 ft
Mostly Cloudy 18000 ft
Heat Index 76 °F
Dew Point 69 °F
Humidity 81%
Rainfall 0.24 in
Snow Depth Not available.
UV 2 out of 12
Pollen 2.60 out of 12
Air Quality Not available.
Flu Activity Not available.
METAR KSDF 012156Z 31004KT 7SM SCT022 SCT065 BKN120 BKN180 27/20 A2989 RMK AO2 SLP115 T02670200

More Conditions Fewer Conditions

10-Day Weather Forecast

×

Almanac

Astronomy

Jul. 01, 2015 Rise Set
Actual Time
Civil Twilight
Nautical Twilight
Astronomical Twilight
Moon
Length of Visible Light
Length of Day
Tomorrow will be .
, % of the Moon is Illuminated

Today's Extremes

State Highs State Lows

Community

WunderPhotos

Upload Photos

1,834,295 photos uploaded!

WunderBlogs® & News

Nearby

Air Quality

  Air Quality AQ Index Pollutant
Not available.

Snow Depth

Station Depth Elevation

Earthquake Activity

City Distance Mag. Time & Date
Minimum magnitude displayed is 2.5.

Coastal Water Temperatures

Place Temperature

Stations

Nearby Weather Stations

Station Location Temp. Windchill Dew Point Humidity Wind Precip. Elev Updated Type